Terminal Aerodrome Forecast
Issued by NWS Charleston, WV

Current Version | Previous Version | Text Only | Print | Product List | Glossary Off
Versions: 1 2 3 4 5 6 7 8 9 10 11 12 13 14 15 16 17 18 19 20 21 22 23 24 25 26 27 28 29 30 31

000
FTUS41 KRLX 182200 AAA
TAFBKW
TAF AMD
KBKW 182243Z 1823/1918 25005KT 5SM -RA BR BKN008 OVC015
      TEMPO 1823/1901 3SM -SHRA
     FM190100 25005KT 5SM BR BKN010
     FM190500 VRB03KT 1SM BR BKN007
     FM190700 VRB03KT 1/2SM FG BKN001
     FM191300 28003KT 4SM BR BKN003
     FM191500 28004KT 1SM HZ BKN007=

USA.gov is the U.S. government's official web portal to all federal, state and local government web resources and services.